Time;durP1;ratioP1;P1;durP2;ratioP2;P2;SDS_P1;SDS_P2;PMS_P1;PMS_P2;Temp;Humidity;BMP_temperature;BMP_pressure;BME280_temperature;BME280_humidity;BME280_pressure;Samples;Min_cycle;Max_cycle;Signal;HPM_P1;HPM_P2
2022/08/23 08:01:53;;;;;;;18.58;14.15;;;;;;;21.25;65.05;101367.84;5312264;27;20416;-74
2022/08/23 08:04:24;;;;;;;18.73;12.55;;;;;;;21.32;64.90;101369.25;5300948;28;20028;-80
2022/08/23 08:06:56;;;;;;;16.58;12.73;;;;;;;21.40;64.92;101374.03;5302237;28;20043;-79
2022/08/23 08:09:27;;;;;;;26.33;23.60;;;;;;;21.49;64.87;101374.72;5303745;28;20432;-78
2022/08/23 08:12:01;;;;;;;19.42;11.27;;;;;;;21.61;64.13;101374.75;5303408;28;20028;-82
2022/08/23 08:14:41;;;;;;;16.55;14.02;;;;;;;21.71;63.78;101371.44;5302649;28;20016;-82
2022/08/23 08:17:12;;;;;;;19.15;12.57;;;;;;;;;;5303959;28;20090;-81
2022/08/23 08:19:44;;;;;;;14.57;12.10;;;;;;;21.82;62.96;101387.91;5302868;28;20032;-81
2022/08/23 08:22:15;;;;;;;22.38;13.70;;;;;;;21.89;63.22;101390.97;5302670;28;20042;-80
2022/08/23 08:24:47;;;;;;;16.63;12.00;;;;;;;22.04;62.92;101383.78;5303097;28;20471;-82
2022/08/23 08:27:21;;;;;;;15.75;12.73;;;;;;;22.04;63.23;101380.97;5307228;28;20028;-80
2022/08/23 08:29:53;;;;;;;14.30;12.80;;;;;;;22.06;62.45;101385.09;5304236;28;20036;-80
2022/08/23 08:32:25;;;;;;;14.65;11.60;;;;;;;22.14;62.89;101386.94;5303938;28;20024;-81
2022/08/23 08:34:57;;;;;;;20.77;14.98;;;;;;;22.29;63.11;101387.41;5305425;28;20074;-80
2022/08/23 08:37:29;;;;;;;31.77;21.85;;;;;;;22.36;62.88;101381.97;5304291;28;20020;-80
2022/08/23 08:40:01;;;;;;;17.60;12.07;;;;;;;22.43;62.13;101381.38;5282706;28;20028;-81
2022/08/23 08:42:43;;;;;;;23.48;12.27;;;;;;;22.54;62.23;101383.31;5295910;28;20589;-79
2022/08/23 08:45:21;;;;;;;13.80;10.82;;;;;;;22.60;62.12;101386.75;5306520;28;20043;-86
2022/08/23 08:48:01;;;;;;;14.55;11.88;;;;;;;22.72;62.06;101391.50;5301288;28;20020;-81
2022/08/23 08:50:46;;;;;;;15.07;10.75;;;;;;;22.79;60.19;101391.72;5300970;28;20352;-77
2022/08/23 08:53:23;;;;;;;14.68;11.25;;;;;;;22.80;60.26;101393.34;5303757;28;20024;-76
2022/08/23 08:55:59;;;;;;;17.50;11.00;;;;;;;22.94;59.74;101395.78;5322038;28;20024;-78
2022/08/23 08:58:47;;;;;;;12.50;7.03;;;;;;;23.05;58.04;101401.75;5321369;28;20024;-78
2022/08/23 09:01:23;;;;;;;12.00;7.82;;;;;;;23.18;57.92;101404.16;5320228;28;20040;-77
2022/08/23 09:03:55;;;;;;;13.90;8.80;;;;;;;23.34;58.79;101403.34;5299510;28;20043;-73
2022/08/23 09:06:39;;;;;;;13.50;8.38;;;;;;;23.50;57.97;101398.53;5299730;28;20025;-73
2022/08/23 09:09:43;;;;;;;12.15;6.95;;;;;;;23.51;57.24;101399.34;5290269;28;20455;-74
2022/08/23 09:12:27;;;;;;;13.90;7.10;;;;;;;23.38;57.61;101401.44;5276070;28;20025;-73
2022/08/23 09:15:01;;;;;;;11.57;6.88;;;;;;;23.45;57.58;101395.97;5269313;28;20107;-72
2022/08/23 09:17:49;;;;;;;11.55;7.18;;;;;;;23.47;58.19;101398.44;5283058;28;20087;-71
2022/08/23 09:20:25;;;;;;;11.52;6.85;;;;;;;23.61;57.54;101398.81;5283642;28;20033;-72
2022/08/23 09:23:11;;;;;;;9.52;6.50;;;;;;;23.66;57.29;101398.53;5283572;28;20028;-73
2022/08/23 09:25:52;;;;;;;12.18;6.97;;;;;;;23.84;56.23;101399.00;5285236;28;20032;-72
2022/08/23 09:28:23;;;;;;;11.25;5.80;;;;;;;23.87;56.07;101404.75;5292901;28;20843;-72
2022/08/23 09:30:57;;;;;;;8.82;4.63;;;;;;;24.00;54.97;101407.47;5306129;28;20091;-72
2022/08/23 09:33:48;;;;;;;12.02;4.55;;;;;;;24.16;55.04;101408.28;5275434;28;20043;-72
2022/08/23 09:36:24;;;;;;;10.88;4.85;;;;;;;24.19;55.07;101413.22;5284792;28;20040;-73
2022/08/23 09:39:06;;;;;;;8.98;4.82;;;;;;;24.25;54.93;101411.72;5285278;28;20017;-72
2022/08/23 09:41:40;;;;;;;8.95;4.68;;;;;;;24.22;54.93;101412.47;5285647;28;20036;-72
2022/08/23 09:44:28;;;;;;;7.57;3.80;;;;;;;24.43;54.42;101405.63;5284834;28;20070;-79
2022/08/23 09:47:14;;;;;;;6.93;3.50;;;;;;;24.38;54.52;101417.28;5286111;28;20123;-73
2022/08/23 09:49:47;;;;;;;10.27;4.28;;;;;;;24.45;53.71;101408.97;5286500;28;20503;-72
2022/08/23 09:52:31;;;;;;;5.63;4.13;;;;;;;24.51;53.85;101407.47;5285162;28;20032;-70
2022/08/23 09:55:10;;;;;;;11.02;7.75;;;;;;;24.53;53.65;101405.09;5285495;28;20020;-71
2022/08/23 09:57:46;;;;;;;8.50;4.20;;;;;;;24.54;53.87;101401.03;5283591;28;20028;-72
2022/08/23 10:00:32;;;;;;;8.57;4.20;;;;;;;24.52;52.49;101400.63;5285013;28;20056;-72
2022/08/23 10:03:25;;;;;;;6.53;3.47;;;;;;;24.62;52.90;101399.19;5285018;28;20021;-72
2022/08/23 10:06:00;;;;;;;7.43;3.28;;;;;;;24.71;51.83;101397.78;5264348;28;20025;-72
2022/08/23 10:08:36;;;;;;;8.00;4.68;;;;;;;24.67;51.76;101385.56;5262672;28;20044;-72
2022/08/23 10:11:16;;;;;;;32.00;28.73;;;;;;;24.76;52.43;101395.84;5283353;28;20414;-71
2022/08/23 10:13:47;;;;;;;9.02;4.72;;;;;;;24.90;52.72;101390.44;5284766;28;20368;-72
2022/08/23 10:16:28;;;;;;;5.57;3.50;;;;;;;25.02;52.29;101384.59;5284786;28;20111;-72
2022/08/23 10:19:38;;;;;;;6.80;3.17;;;;;;;25.06;51.67;101396.84;5283743;28;20039;-72
2022/08/23 10:22:22;;;;;;;8.95;4.13;;;;;;;25.09;51.05;101386.78;5281465;28;20081;-71
2022/08/23 10:25:21;;;;;;;6.40;3.60;;;;;;;25.01;51.77;101394.31;5282410;28;20037;-72
2022/08/23 10:31:12;;;;;;;8.75;3.75;;;;;;;25.14;51.31;101387.28;5284281;28;20032;-72
2022/08/23 10:33:52;;;;;;;7.18;4.25;;;;;;;25.19;51.19;101391.03;5283656;28;20154;-72
2022/08/23 10:36:45;;;;;;;8.80;3.85;;;;;;;25.26;51.05;101392.00;5283321;28;20021;-72
2022/08/23 10:39:27;;;;;;;8.30;3.67;;;;;;;25.19;50.64;101385.38;5273365;28;20074;-70
2022/08/23 10:42:32;;;;;;;7.80;4.28;;;;;;;25.19;50.38;101385.38;5275378;28;20111;-71
2022/08/23 10:45:06;;;;;;;8.82;4.40;;;;;;;25.17;50.63;101391.41;5282043;28;20067;-72
2022/08/23 10:48:01;;;;;;;6.70;2.75;;;;;;;25.28;49.31;101381.06;5275659;28;20514;-73
2022/08/23 10:50:46;;;;;;;5.00;2.10;;;;;;;25.35;48.00;101378.34;5263358;28;20037;-73
2022/08/23 10:53:19;;;;;;;5.55;2.63;;;;;;;25.32;48.16;101378.31;5262477;28;20021;-71
2022/08/23 10:56:02;;;;;;;20.83;17.75;;;;;;;25.52;48.50;101374.19;5273602;28;20021;-72
2022/08/23 10:58:41;;;;;;;8.18;4.10;;;;;;;25.46;49.13;101364.34;5262986;28;20025;-71
2022/08/23 11:01:16;;;;;;;5.30;2.88;;;;;;;25.53;48.67;101377.84;5261952;28;20076;-71
2022/08/23 11:04:02;;;;;;;5.45;2.90;;;;;;;25.63;48.66;101373.56;5267490;28;20031;-72
2022/08/23 11:06:33;;;;;;;8.48;3.13;;;;;;;25.62;47.56;101369.06;5281817;28;20020;-72
2022/08/23 11:09:09;;;;;;;4.77;2.63;;;;;;;25.69;47.81;101374.88;5262852;28;20035;-71
2022/08/23 11:11:46;;;;;;;5.00;2.83;;;;;;;25.78;47.97;101375.44;5276492;28;20294;-72
2022/08/23 11:14:35;;;;;;;5.07;2.67;;;;;;;25.76;48.46;101366.47;5282390;28;20040;-72
2022/08/23 11:17:11;;;;;;;5.30;2.63;;;;;;;25.85;47.93;101367.06;5290243;28;20487;-75
2022/08/23 11:20:09;;;;;;;9.85;3.10;;;;;;;25.88;47.41;101374.81;5282334;28;20509;-73
2022/08/23 11:23:09;;;;;;;6.85;3.28;;;;;;;25.71;48.21;101375.31;5257114;28;20044;-73
2022/08/23 11:25:43;;;;;;;10.32;5.25;;;;;;;25.69;48.12;101372.84;5265585;28;20051;-73
2022/08/23 11:28:20;;;;;;;5.95;3.05;;;;;;;25.93;48.34;101368.81;5290867;28;20073;-78
2022/08/23 11:30:55;;;;;;;39.33;5.65;;;;;;;26.13;47.77;101363.00;5291490;28;20387;-78
2022/08/23 11:33:35;;;;;;;8.03;2.90;;;;;;;26.10;47.08;101369.44;5283964;28;20021;-78
2022/08/23 11:36:07;;;;;;;13.00;3.40;;;;;;;26.29;47.14;101363.63;5281513;28;20028;-70
2022/08/23 11:38:47;;;;;;;6.10;2.58;;;;;;;26.56;46.27;101370.13;5283493;28;20108;-71
2022/08/23 11:41:18;;;;;;;5.63;2.28;;;;;;;26.63;45.74;101363.69;5283088;28;20028;-71
2022/08/23 11:43:55;;;;;;;5.72;2.95;;;;;;;26.57;45.73;101370.94;5281803;28;20426;-72
2022/08/23 11:46:30;;;;;;;5.97;2.53;;;;;;;26.75;44.58;101359.78;5283213;28;20028;-72
2022/08/23 11:49:29;;;;;;;5.80;2.67;;;;;;;26.98;45.41;101360.44;5281768;28;20090;-71
2022/08/23 11:52:53;;;;;;;4.00;2.42;;;;;;;26.89;45.49;101359.94;5283088;28;20139;-70
2022/08/23 11:55:43;;;;;;;7.78;3.60;;;;;;;26.85;45.28;101370.47;5208920;28;20041;-71
2022/08/23 11:58:14;;;;;;;9.68;2.90;;;;;;;26.86;45.32;101372.09;5200435;28;20362;-70
2022/08/23 12:00:53;;;;;;;7.30;3.15;;;;;;;26.88;45.13;101376.19;5263064;28;20123;-71
2022/08/23 12:03:42;;;;;;;5.65;2.75;;;;;;;26.75;45.53;101366.28;5282271;28;20021;-73
2022/08/23 12:06:36;;;;;;;4.15;2.53;;;;;;;26.60;45.97;101373.00;5282713;28;20025;-71
2022/08/23 12:09:31;;;;;;;5.65;2.65;;;;;;;26.46;45.99;101370.78;5283136;28;20067;-71
2022/08/23 12:12:27;;;;;;;8.00;3.80;;;;;;;26.61;46.04;101371.78;5281562;28;20032;-71
2022/08/23 12:15:09;;;;;;;6.53;3.33;;;;;;;26.62;45.36;101367.75;5282759;28;20505;-75
2022/08/23 12:17:41;;;;;;;7.60;4.80;;;;;;;26.70;45.42;101372.31;5283992;28;20028;-74
2022/08/23 12:20:25;;;;;;;4.63;2.70;;;;;;;26.52;45.40;101374.09;5303561;28;20387;-79
2022/08/23 12:23:02;;;;;;;6.18;2.50;;;;;;;26.75;45.54;101369.13;5304261;28;20024;-77
2022/08/23 12:25:35;;;;;;;5.13;3.08;;;;;;;26.97;44.78;101369.38;5300816;28;20466;-80
2022/08/23 12:28:28;;;;;;;2.70;1.83;;;;;;;27.02;44.19;101366.16;5283518;28;20112;-79
2022/08/23 12:31:15;;;;;;;3.60;1.90;;;;;;;27.21;43.49;101357.47;5282270;28;20031;-75
2022/08/23 12:34:02;;;;;;;5.30;1.90;;;;;;;27.30;42.99;101357.97;5283154;28;20024;-76
2022/08/23 12:36:49;;;;;;;4.75;2.25;;;;;;;27.49;42.86;101365.44;5277156;28;20422;-75
2022/08/23 12:39:31;;;;;;;5.32;2.00;;;;;;;27.65;42.57;101368.00;5281612;28;20034;-75
2022/08/23 12:42:10;;;;;;;5.20;2.55;;;;;;;27.57;42.78;101366.31;5282279;28;20094;-76
2022/08/23 12:44:44;;;;;;;4.38;1.92;;;;;;;27.54;42.82;101364.28;5282607;28;20025;-75
2022/08/23 12:47:19;;;;;;;3.78;2.15;;;;;;;27.77;42.65;101366.09;5283025;28;20032;-76
2022/08/23 12:50:08;;;;;;;4.88;2.08;;;;;;;27.94;41.96;101371.09;5285985;28;20441;-73
2022/08/23 12:52:39;;;;;;;7.85;1.98;;;;;;;28.18;41.91;101373.31;5284963;28;20109;-72
2022/08/23 12:55:17;;;;;;;3.80;2.00;;;;;;;27.97;41.42;101367.47;5285916;28;20048;-72
2022/08/23 12:57:57;;;;;;;3.65;2.33;;;;;;;28.42;41.60;101365.28;5306822;28;20032;-76
2022/08/23 13:00:41;;;;;;;5.03;2.13;;;;;;;28.45;40.43;101363.69;5306247;28;20047;-74
2022/08/23 13:03:20;;;;;;;4.90;2.05;;;;;;;28.54;41.05;101364.16;5294811;28;20027;-76
2022/08/23 13:05:51;;;;;;;4.07;2.10;;;;;;;28.46;41.23;101365.34;5303905;28;20379;-77
2022/08/23 13:08:27;;;;;;;3.77;2.27;;;;;;;28.48;41.41;101365.72;5306371;28;20028;-76
2022/08/23 13:10:59;;;;;;;3.50;1.80;;;;;;;28.58;40.94;101362.94;5289262;28;20307;-75
2022/08/23 13:13:31;;;;;;;3.90;2.03;;;;;;;28.82;40.45;101357.72;5265195;28;20503;-75
2022/08/23 13:16:38;;;;;;;2.45;1.85;;;;;;;28.98;40.48;101363.88;5265651;28;20044;-75
2022/08/23 13:19:25;;;;;;;3.80;1.67;;;;;;;28.94;40.59;101350.81;5265076;28;20036;-76
2022/08/23 13:22:18;;;;;;;1.88;1.55;;;;;;;29.10;39.24;101359.06;5264194;28;20064;-76
2022/08/23 13:25:04;;;;;;;2.90;1.50;;;;;;;29.36;38.68;101355.00;5264817;28;20043;-76
2022/08/23 13:27:44;;;;;;;;;;;;;;;29.53;39.46;101356.22;5282935;28;20025;-75
2022/08/23 13:30:18;;;;;;;4.13;1.70;;;;;;;29.54;38.71;101357.84;5301810;28;20295;-74
2022/08/23 13:33:11;;;;;;;4.47;1.73;;;;;;;29.39;38.32;101355.00;5307089;28;20028;-75
2022/08/23 13:35:44;;;;;;;3.28;1.38;;;;;;;29.56;38.26;101353.38;5306245;28;20035;-74
2022/08/23 13:38:29;;;;;;;4.63;1.75;;;;;;;29.55;38.15;101356.63;5287646;28;20037;-74
2022/08/23 13:41:03;;;;;;;2.13;1.80;;;;;;;29.60;38.36;101353.34;5285432;28;20028;-75
2022/08/23 13:43:40;;;;;;;3.67;1.70;;;;;;;29.77;38.17;101352.56;5285075;28;20024;-74
2022/08/23 13:46:23;;;;;;;2.60;2.22;;;;;;;29.81;37.94;101353.38;5285181;28;20032;-76
2022/08/23 13:49:04;;;;;;;3.80;1.58;;;;;;;29.85;38.14;101351.31;5284723;28;20024;-76
2022/08/23 13:51:41;;;;;;;9.15;2.60;;;;;;;29.94;37.91;101358.66;5286440;28;20067;-75
2022/08/23 13:54:14;;;;;;;3.13;1.55;;;;;;;29.76;37.98;101356.66;5285483;28;20020;-76
2022/08/23 13:56:51;;;;;;;4.25;2.20;;;;;;;29.66;37.89;101360.34;5284841;28;20592;-75
2022/08/23 13:59:32;;;;;;;2.83;1.48;;;;;;;29.44;38.83;101363.16;5284507;28;20031;-75
2022/08/23 14:02:07;;;;;;;4.35;1.55;;;;;;;29.19;39.48;101351.69;5281809;28;20036;-81
2022/08/23 14:04:40;;;;;;;3.92;1.88;;;;;;;29.14;39.46;101348.44;5284295;28;20533;-76
2022/08/23 14:07:13;;;;;;;6.32;1.92;;;;;;;29.10;39.82;101347.63;5285293;28;20437;-77
2022/08/23 14:09:45;;;;;;;7.75;1.80;;;;;;;28.80;40.39;101345.88;5283113;28;20412;-74
2022/08/23 14:12:24;;;;;;;5.38;1.98;;;;;;;28.97;40.08;101345.13;5278725;28;20017;-75
2022/08/23 14:14:57;;;;;;;5.93;2.03;;;;;;;29.00;39.61;101347.16;5264740;28;20032;-75
2022/08/23 14:17:30;;;;;;;4.90;2.38;;;;;;;29.46;39.35;101352.13;5263001;28;20021;-76
2022/08/23 14:20:03;;;;;;;4.30;1.70;;;;;;;29.54;39.49;101344.38;5266832;28;20031;-76
2022/08/23 14:22:34;;;;;;;2.70;1.52;;;;;;;29.62;39.14;101354.56;5282453;28;20055;-76
2022/08/23 14:25:07;;;;;;;4.20;1.65;;;;;;;29.75;39.70;101359.91;5268685;28;20110;-75
2022/08/23 14:27:41;;;;;;;4.75;1.58;;;;;;;29.83;40.13;101345.19;5281210;28;20032;-74
2022/08/23 14:30:34;;;;;;;5.65;1.83;;;;;;;29.90;39.54;101352.94;5271638;28;20027;-76
2022/08/23 14:33:06;;;;;;;5.30;1.98;;;;;;;29.77;39.27;101341.13;5264566;28;20028;-74
2022/08/23 14:35:37;;;;;;;3.78;1.80;;;;;;;29.46;39.59;101349.28;5277115;28;20021;-75
2022/08/23 14:38:17;;;;;;;5.05;2.00;;;;;;;29.36;40.76;101344.38;5262901;28;20033;-75
2022/08/23 14:40:54;;;;;;;3.03;1.70;;;;;;;29.44;40.46;101340.28;5263363;28;20055;-75
2022/08/23 14:43:26;;;;;;;5.07;3.60;;;;;;;29.44;40.06;101337.44;5264122;28;20024;-74
2022/08/23 14:45:59;;;;;;;3.85;1.90;;;;;;;29.53;39.95;101347.63;5278546;28;20028;-74
2022/08/23 14:48:31;;;;;;;2.42;1.65;;;;;;;28.97;40.34;101345.13;5288660;28;20096;-75
2022/08/23 14:51:03;;;;;;;4.90;1.70;;;;;;;29.10;40.97;101337.03;5290542;28;20024;-76
2022/08/23 14:53:35;;;;;;;5.10;1.63;;;;;;;29.07;40.68;101337.84;5291549;28;20116;-78
2022/08/23 14:56:06;;;;;;;2.67;1.70;;;;;;;28.87;40.85;101333.69;5295327;28;20012;-77
2022/08/23 14:58:39;;;;;;;2.80;1.70;;;;;;;28.74;41.88;101336.91;5290389;28;20058;-78
2022/08/23 15:01:12;;;;;;;6.07;2.10;;;;;;;28.88;42.39;101338.16;5284543;28;20052;-75
2022/08/23 15:03:44;;;;;;;2.88;1.52;;;;;;;28.97;41.93;101328.00;5299560;28;20491;-76
2022/08/23 15:06:20;;;;;;;4.25;1.67;;;;;;;28.92;41.66;101327.59;5283037;28;20029;-75
2022/08/23 15:08:52;;;;;;;4.13;1.83;;;;;;;28.89;41.84;101329.22;5283541;28;20463;-75
2022/08/23 15:11:24;;;;;;;3.63;1.70;;;;;;;29.04;41.19;101333.72;5283235;28;20027;-75
2022/08/23 15:13:55;;;;;;;5.95;4.32;;;;;;;29.14;40.23;101340.69;5282891;28;20032;-76
2022/08/23 15:16:27;;;;;;;4.05;1.73;;;;;;;29.14;40.69;101337.00;5283185;28;20051;-77
2022/08/23 15:18:58;;;;;;;4.72;1.95;;;;;;;29.17;40.31;101337.03;5280742;28;20025;-75
2022/08/23 15:21:30;;;;;;;6.00;1.52;;;;;;;29.19;40.88;101343.13;5282025;28;20050;-76
2022/08/23 15:24:01;;;;;;;4.85;2.13;;;;;;;29.38;40.84;101341.94;5283419;28;20044;-74
2022/08/23 15:26:33;;;;;;;3.72;1.45;;;;;;;29.24;41.40;101339.06;5282850;28;20037;-75
2022/08/23 15:29:05;;;;;;;12.80;10.80;;;;;;;29.21;41.49;101337.03;5300973;28;20459;-75
2022/08/23 15:31:39;;;;;;;12.05;10.85;;;;;;;29.30;41.45;101334.59;5293886;28;20468;-75
2022/08/23 15:34:10;;;;;;;3.50;1.98;;;;;;;29.29;41.31;101327.22;5282262;28;20116;-77
2022/08/23 15:36:42;;;;;;;5.43;4.93;;;;;;;29.23;41.84;101329.69;5277090;28;20112;-75
2022/08/23 15:39:13;;;;;;;22.25;20.35;;;;;;;29.18;42.40;101323.56;5262432;28;20546;-75
2022/08/23 15:41:45;;;;;;;5.22;1.90;;;;;;;29.16;41.86;101329.66;5261560;28;20036;-75
2022/08/23 15:44:16;;;;;;;2.28;1.30;;;;;;;29.10;42.43;101334.16;5270486;28;20402;-75
2022/08/23 15:46:47;;;;;;;5.18;1.45;;;;;;;28.97;41.62;101336.56;5280170;28;20021;-77
2022/08/23 15:49:19;;;;;;;1.25;1.13;;;;;;;28.94;41.97;101336.53;5277958;28;20064;-76
2022/08/23 15:51:50;;;;;;;1.15;1.00;;;;;;;28.90;41.92;101330.81;5261838;28;20064;-75
2022/08/23 15:54:21;;;;;;;79.93;72.93;;;;;;;29.05;42.34;101340.28;5276490;28;20415;-76
2022/08/23 15:56:53;;;;;;;4.20;2.47;;;;;;;29.16;41.87;101334.56;5261785;28;20353;-76
2022/08/23 15:59:24;;;;;;;1.35;1.25;;;;;;;29.02;42.24;101339.00;5280758;28;20025;-74
2022/08/23 16:01:56;;;;;;;2.17;1.45;;;;;;;29.05;42.11;101340.28;5280367;28;20028;-75
2022/08/23 16:04:27;;;;;;;2.92;1.15;;;;;;;28.89;42.64;101334.06;5271292;28;20120;-76
2022/08/23 16:07:06;;;;;;;3.85;1.25;;;;;;;28.88;42.72;101329.59;5262202;28;20021;-76
2022/08/23 16:09:39;;;;;;;26.63;22.52;;;;;;;29.04;42.23;101333.72;5277363;28;20495;-76
2022/08/23 16:12:11;;;;;;;9.43;7.20;;;;;;;28.93;42.38;101332.88;5282808;28;20086;-73
2022/08/23 16:14:42;;;;;;;1.83;1.63;;;;;;;28.92;42.91;101336.16;5282303;28;20068;-74
2022/08/23 16:17:13;;;;;;;5.43;3.50;;;;;;;28.93;42.31;101340.63;5282217;28;20074;-74
2022/08/23 16:19:46;;;;;;;2.90;1.30;;;;;;;29.13;41.96;101335.38;5282050;28;20031;-75
2022/08/23 16:22:17;;;;;;;4.28;1.67;;;;;;;29.05;41.92;101334.56;5284696;28;20043;-74
2022/08/23 16:24:48;;;;;;;3.55;2.67;;;;;;;28.99;42.12;101324.72;5286399;28;20024;-75
2022/08/23 16:27:20;;;;;;;3.70;1.40;;;;;;;28.98;42.12;101331.66;5286797;28;20108;-75
2022/08/23 16:29:51;;;;;;;3.83;1.60;;;;;;;28.81;42.27;101324.69;5286792;28;20513;-75
2022/08/23 16:32:23;;;;;;;3.85;1.90;;;;;;;28.92;42.51;101325.53;5286216;28;20043;-73
2022/08/23 16:34:54;;;;;;;3.05;1.50;;;;;;;28.86;42.19;101326.31;5286690;28;20110;-75
2022/08/23 16:37:26;;;;;;;5.72;1.90;;;;;;;29.03;42.11;101326.38;5286108;28;20035;-75
2022/08/23 16:39:57;;;;;;;2.92;1.90;;;;;;;28.92;42.07;101331.25;5286870;28;20467;-75
2022/08/23 16:42:28;;;;;;;1.17;0.88;;;;;;;28.81;42.21;101330.38;5285076;28;20034;-74
2022/08/23 16:45:00;;;;;;;6.88;6.22;;;;;;;28.91;42.31;101335.31;5279252;28;20471;-75
2022/08/23 16:47:34;;;;;;;6.13;5.63;;;;;;;29.06;42.21;101333.34;5286308;28;20416;-74
2022/08/23 16:50:06;;;;;;;8.70;7.90;;;;;;;29.03;42.20;101326.38;5285902;28;20086;-75
2022/08/23 16:52:38;;;;;;;11.98;10.77;;;;;;;29.02;41.81;101330.44;5285659;28;20020;-75
2022/08/23 16:55:11;;;;;;;5.13;3.70;;;;;;;29.00;42.00;101332.88;5286336;28;20047;-74
2022/08/23 16:57:42;;;;;;;12.20;11.02;;;;;;;29.08;41.67;101332.94;5285880;28;20016;-74
2022/08/23 17:00:14;;;;;;;3.13;1.52;;;;;;;28.98;41.92;101343.88;5297429;28;20097;-74
2022/08/23 17:02:46;;;;;;;3.60;2.50;;;;;;;28.93;42.16;101344.28;5284561;28;20128;-73
2022/08/23 17:05:18;;;;;;;7.63;1.70;;;;;;;28.71;42.30;101337.72;5285439;28;20464;-75
2022/08/23 17:07:52;;;;;;;1.63;1.08;;;;;;;28.79;42.17;101338.56;5286442;28;20047;-74
2022/08/23 17:10:24;;;;;;;2.65;0.90;;;;;;;28.75;42.54;101338.53;5286004;28;20348;-74
2022/08/23 17:12:57;;;;;;;1.33;1.00;;;;;;;28.76;42.92;101339.34;5284646;28;20033;-75
2022/08/23 17:15:33;;;;;;;7.10;1.88;;;;;;;28.53;43.33;101340.50;5285990;28;20020;-74
2022/08/23 17:18:05;;;;;;;5.90;1.70;;;;;;;28.54;43.45;101339.28;5285618;28;20024;-74
2022/08/23 17:20:38;;;;;;;17.25;3.38;;;;;;;28.51;43.35;101345.00;5284879;28;20025;-75
2022/08/23 17:23:10;;;;;;;72.13;65.15;;;;;;;28.52;43.94;101341.72;5285431;28;20094;-73
2022/08/23 17:25:46;;;;;;;51.47;46.53;;;;;;;28.40;44.49;101344.88;5298735;28;20062;-74
2022/08/23 17:28:17;;;;;;;10.13;5.07;;;;;;;28.43;44.46;101344.09;5277040;28;20542;-75
2022/08/23 17:30:49;;;;;;;4.63;1.35;;;;;;;28.44;44.12;101345.75;5264850;28;20028;-74
2022/08/23 17:33:20;;;;;;;1.30;1.20;;;;;;;28.42;44.20;101341.66;5272214;28;20104;-73
